PWSweather.com
Personal Weather Stations
Station Observations
ATLSISEO
Iseo, IseoIT 25049

IseoIseoIT 25049

Lat: 45.659737, Lon: 10.03512

Elevation: 15

Station Type: PCE FW20

Latest ConditionsUpdated 8:53:01 AM GMT+01:01 Thursday, Jul 18, 2019
Currently Today's Max Today's Min Today's Average
Temperature 72.9°F22.7°C 73.6°F23.1°C 70.9°F21.6°C 72.2°F22.3°C
Dew Point 55.2°F12.9°C 62.8°F17.1°C 55.2°F12.9°C 60.7°F15.9°C
Winds 17.5 mph E28.2 kmh E 21.3 mph -34.3 kmh - - 14.9 mph 24.0 kmh
Wind Gusts 19.0 mph30.6 kmh 25.1 mph40.4 kmh - -
Humidity 54% 72% 54% 67%
Pressure 29.91 in1012.9 mb 29.91 in1012.9 mb 29.83 in1010.2 mb -
Hour Temp Dew Point Humidity Winds Wind Gusts Pressure Precip Precip Rate Daily Precip Total
08:53 AM 72.9°F22.7°C 55.2°F12.9°C 54% 17.5 mph E28.2 kmh E 19.0 mph30.6 kmh 29.91 in1012.9 mb 0.00 in0.0 mm 0.00 in0.0 mm 0.00 in0.0 mm
08:48 AM 72.7°F22.6°C 56.6°F13.7°C 57% 16.8 mph E27.0 kmh E 19.0 mph30.6 kmh 29.91 in1012.9 mb 0.00 in0.0 mm 0.00 in0.0 mm 0.00 in0.0 mm
08:37 AM 72.3°F22.4°C 57.6°F14.2°C 60% 17.5 mph NE28.2 kmh NE 19.7 mph31.7 kmh 29.90 in1012.5 mb 0.00 in0.0 mm 0.00 in0.0 mm 0.00 in0.0 mm
08:32 AM 72.0°F22.2°C 58.2°F14.6°C 62% 15.2 mph E24.5 kmh E 19.0 mph30.6 kmh 29.90 in1012.5 mb 0.00 in0.0 mm 0.00 in0.0 mm 0.00 in0.0 mm
08:27 AM 71.8°F22.1°C 57.1°F13.9°C 60% 16.8 mph E27.0 kmh E 19.7 mph31.7 kmh 29.90 in1012.5 mb 0.00 in0.0 mm 0.00 in0.0 mm 0.00 in0.0 mm
08:22 AM 71.4°F21.9°C 56.8°F13.8°C 60% 15.9 mph E25.6 kmh E 19.7 mph31.7 kmh 29.90 in1012.5 mb 0.00 in0.0 mm 0.00 in0.0 mm 0.00 in0.0 mm
08:18 AM 72.0°F22.2°C 57.3°F14.1°C 60% 19.0 mph E30.6 kmh E 22.2 mph35.7 kmh 29.90 in1012.5 mb 0.00 in0.0 mm 0.00 in0.0 mm 0.00 in0.0 mm
08:12 AM 72.0°F22.2°C 57.3°F14.1°C 60% 21.3 mph E34.3 kmh E 24.4 mph39.3 kmh 29.90 in1012.5 mb 0.00 in0.0 mm 0.00 in0.0 mm 0.00 in0.0 mm
08:08 AM 72.7°F22.6°C 57.5°F14.2°C 59% 19.0 mph E30.6 kmh E 21.3 mph34.3 kmh 29.90 in1012.5 mb 0.00 in0.0 mm 0.00 in0.0 mm 0.00 in0.0 mm
08:02 AM 73.0°F22.8°C 58.3°F14.6°C 60% 18.3 mph NE29.5 kmh NE 19.0 mph30.6 kmh 29.90 in1012.5 mb 0.00 in0.0 mm 0.00 in0.0 mm 0.00 in0.0 mm
07:57 AM 73.2°F22.9°C 56.6°F13.7°C 56% 15.9 mph NE25.6 kmh NE 20.6 mph33.2 kmh 29.89 in1012.2 mb 0.00 in0.0 mm 0.00 in0.0 mm 0.00 in0.0 mm
07:52 AM 73.2°F22.9°C 57.5°F14.2°C 58% 15.9 mph NE25.6 kmh NE 17.5 mph28.2 kmh 29.90 in1012.5 mb 0.00 in0.0 mm 0.00 in0.0 mm 0.00 in0.0 mm
07:47 AM 73.2°F22.9°C 57.5°F14.2°C 58% 21.3 mph E34.3 kmh E 24.4 mph39.3 kmh 29.89 in1012.2 mb 0.00 in0.0 mm 0.00 in0.0 mm 0.00 in0.0 mm
07:42 AM 73.2°F22.9°C 57.5°F14.2°C 58% 13.7 mph E22.0 kmh E 15.2 mph24.5 kmh 29.88 in1011.9 mb 0.00 in0.0 mm 0.00 in0.0 mm 0.00 in0.0 mm
07:37 AM 72.9°F22.7°C 57.7°F14.3°C 59% 20.6 mph E33.2 kmh E 25.1 mph40.4 kmh 29.88 in1011.9 mb 0.00 in0.0 mm 0.00 in0.0 mm 0.00 in0.0 mm
07:32 AM 72.7°F22.6°C 58.0°F14.4°C 60% 15.2 mph E24.5 kmh E 19.0 mph30.6 kmh 29.88 in1011.9 mb 0.00 in0.0 mm 0.00 in0.0 mm 0.00 in0.0 mm
07:27 AM 72.5°F22.5°C 57.8°F14.3°C 60% 19.0 mph E30.6 kmh E 22.8 mph36.7 kmh 29.89 in1012.2 mb 0.00 in0.0 mm 0.00 in0.0 mm 0.00 in0.0 mm
07:22 AM 72.1°F22.3°C 59.3°F15.2°C 64% 21.3 mph E34.3 kmh E 22.2 mph35.7 kmh 29.89 in1012.2 mb 0.00 in0.0 mm 0.00 in0.0 mm 0.00 in0.0 mm
07:17 AM 72.0°F22.2°C 61.2°F16.2°C 69% 14.5 mph E23.3 kmh E 17.5 mph28.2 kmh 29.88 in1011.9 mb 0.00 in0.0 mm 0.00 in0.0 mm 0.00 in0.0 mm
07:12 AM 72.0°F22.2°C 61.2°F16.2°C 69% 15.2 mph E24.5 kmh E 16.8 mph27.0 kmh 29.89 in1012.2 mb 0.00 in0.0 mm 0.00 in0.0 mm 0.00 in0.0 mm
07:07 AM 72.0°F22.2°C 60.8°F16.0°C 68% 13.0 mph E20.9 kmh E 15.2 mph24.5 kmh 29.89 in1012.2 mb 0.00 in0.0 mm 0.00 in0.0 mm 0.00 in0.0 mm
07:02 AM 72.0°F22.2°C 60.8°F16.0°C 68% 13.7 mph E22.0 kmh E 17.5 mph28.2 kmh 29.88 in1011.9 mb 0.00 in0.0 mm 0.00 in0.0 mm 0.00 in0.0 mm
06:57 AM 72.0°F22.2°C 60.8°F16.0°C 68% 13.7 mph SE22.0 kmh SE 15.9 mph25.6 kmh 29.88 in1011.9 mb 0.00 in0.0 mm 0.00 in0.0 mm 0.00 in0.0 mm
06:52 AM 71.4°F21.9°C 61.5°F16.4°C 71% 17.5 mph E28.2 kmh E 20.6 mph33.2 kmh 29.88 in1011.9 mb 0.00 in0.0 mm 0.00 in0.0 mm 0.00 in0.0 mm
06:47 AM 71.2°F21.8°C 61.7°F16.5°C 72% 16.8 mph E27.0 kmh E 19.7 mph31.7 kmh 29.88 in1011.9 mb 0.00 in0.0 mm 0.00 in0.0 mm 0.00 in0.0 mm
06:42 AM 71.2°F21.8°C 61.7°F16.5°C 72% 19.7 mph NE31.7 kmh NE 22.2 mph35.7 kmh 29.88 in1011.9 mb 0.00 in0.0 mm 0.00 in0.0 mm 0.00 in0.0 mm
06:37 AM 71.4°F21.9°C 60.7°F15.9°C 69% 13.7 mph E22.0 kmh E 15.9 mph25.6 kmh 29.88 in1011.9 mb 0.00 in0.0 mm 0.00 in0.0 mm 0.00 in0.0 mm
06:32 AM 71.4°F21.9°C 60.7°F15.9°C 69% 17.5 mph E28.2 kmh E 19.7 mph31.7 kmh 29.88 in1011.9 mb 0.00 in0.0 mm 0.00 in0.0 mm 0.00 in0.0 mm
06:27 AM 71.4°F21.9°C 60.7°F15.9°C 69% 19.7 mph E31.7 kmh E 21.3 mph34.3 kmh 29.87 in1011.5 mb 0.00 in0.0 mm 0.00 in0.0 mm 0.00 in0.0 mm
06:22 AM 71.4°F21.9°C 61.5°F16.4°C 71% 13.7 mph E22.0 kmh E 15.9 mph25.6 kmh 29.88 in1011.9 mb 0.00 in0.0 mm 0.00 in0.0 mm 0.00 in0.0 mm
06:17 AM 71.4°F21.9°C 61.5°F16.4°C 71% 13.7 mph E22.0 kmh E 15.2 mph24.5 kmh 29.88 in1011.9 mb 0.00 in0.0 mm 0.00 in0.0 mm 0.00 in0.0 mm
06:12 AM 70.9°F21.6°C 60.6°F15.9°C 70% 13.7 mph E22.0 kmh E 14.5 mph23.3 kmh 29.88 in1011.9 mb 0.00 in0.0 mm 0.00 in0.0 mm 0.00 in0.0 mm
06:07 AM 71.1°F21.7°C 61.6°F16.4°C 72% 17.5 mph E28.2 kmh E 19.7 mph31.7 kmh 29.87 in1011.5 mb 0.00 in0.0 mm 0.00 in0.0 mm 0.00 in0.0 mm
06:02 AM 70.9°F21.6°C 60.6°F15.9°C 70% 14.5 mph E23.3 kmh E 15.9 mph25.6 kmh 29.87 in1011.5 mb 0.00 in0.0 mm 0.00 in0.0 mm 0.00 in0.0 mm
05:57 AM 71.4°F21.9°C 61.9°F16.6°C 72% 15.2 mph E24.5 kmh E 19.7 mph31.7 kmh 29.87 in1011.5 mb 0.00 in0.0 mm 0.00 in0.0 mm 0.00 in0.0 mm
05:52 AM 71.4°F21.9°C 61.5°F16.4°C 71% 7.6 mph E12.2 kmh E 9.2 mph14.8 kmh 29.87 in1011.5 mb 0.00 in0.0 mm 0.00 in0.0 mm 0.00 in0.0 mm
05:47 AM 71.6°F22.0°C 61.7°F16.5°C 71% 9.8 mph ENE15.8 kmh ENE 12.1 mph19.5 kmh 29.86 in1011.2 mb 0.00 in0.0 mm 0.00 in0.0 mm 0.00 in0.0 mm
05:42 AM 71.4°F21.9°C 61.5°F16.4°C 71% 14.5 mph E23.3 kmh E 16.8 mph27.0 kmh 29.87 in1011.5 mb 0.00 in0.0 mm 0.00 in0.0 mm 0.00 in0.0 mm
05:37 AM 71.2°F21.8°C 61.3°F16.3°C 71% 12.1 mph ESE19.5 kmh ESE 15.2 mph24.5 kmh 29.86 in1011.2 mb 0.00 in0.0 mm 0.00 in0.0 mm 0.00 in0.0 mm
05:32 AM 71.4°F21.9°C 61.1°F16.2°C 70% 13.0 mph SE20.9 kmh SE 15.2 mph24.5 kmh 29.86 in1011.2 mb 0.00 in0.0 mm 0.00 in0.0 mm 0.00 in0.0 mm
05:27 AM 71.8°F22.1°C 61.5°F16.4°C 70% 15.9 mph E25.6 kmh E 17.5 mph28.2 kmh 29.86 in1011.2 mb 0.00 in0.0 mm 0.00 in0.0 mm 0.00 in0.0 mm
05:22 AM 71.8°F22.1°C 60.6°F15.9°C 68% 14.5 mph E23.3 kmh E 18.3 mph29.5 kmh 29.86 in1011.2 mb 0.00 in0.0 mm 0.00 in0.0 mm 0.00 in0.0 mm
05:17 AM 71.4°F21.9°C 59.9°F15.5°C 67% 10.7 mph SE17.2 kmh SE 12.1 mph19.5 kmh 29.86 in1011.2 mb 0.00 in0.0 mm 0.00 in0.0 mm 0.00 in0.0 mm
05:12 AM 71.4°F21.9°C 59.5°F15.3°C 66% 10.7 mph E17.2 kmh E 13.7 mph22.0 kmh 29.86 in1011.2 mb 0.00 in0.0 mm 0.00 in0.0 mm 0.00 in0.0 mm
05:07 AM 71.4°F21.9°C 60.7°F15.9°C 69% 9.2 mph E14.8 kmh E 10.7 mph17.2 kmh 29.87 in1011.5 mb 0.00 in0.0 mm 0.00 in0.0 mm 0.00 in0.0 mm
05:02 AM 71.4°F21.9°C 60.7°F15.9°C 69% 9.2 mph E14.8 kmh E 10.7 mph17.2 kmh 29.86 in1011.2 mb 0.00 in0.0 mm 0.00 in0.0 mm 0.00 in0.0 mm
04:57 AM 71.4°F21.9°C 61.1°F16.2°C 70% 12.1 mph E19.5 kmh E 14.5 mph23.3 kmh 29.87 in1011.5 mb 0.00 in0.0 mm 0.00 in0.0 mm 0.00 in0.0 mm
04:52 AM 71.4°F21.9°C 61.1°F16.2°C 70% 11.4 mph SSE18.3 kmh SSE 13.7 mph22.0 kmh 29.86 in1011.2 mb 0.00 in0.0 mm 0.00 in0.0 mm 0.00 in0.0 mm
04:47 AM 71.6°F22.0°C 60.9°F16.1°C 69% 11.4 mph E18.3 kmh E 13.7 mph22.0 kmh 29.86 in1011.2 mb 0.00 in0.0 mm 0.00 in0.0 mm 0.00 in0.0 mm
04:42 AM 71.4°F21.9°C 61.1°F16.2°C 70% 13.7 mph E22.0 kmh E 15.9 mph25.6 kmh 29.86 in1011.2 mb 0.00 in0.0 mm 0.00 in0.0 mm 0.00 in0.0 mm
04:37 AM 71.4°F21.9°C 61.1°F16.2°C 70% 14.5 mph E23.3 kmh E 17.5 mph28.2 kmh 29.86 in1011.2 mb 0.00 in0.0 mm 0.00 in0.0 mm 0.00 in0.0 mm
04:32 AM 71.4°F21.9°C 61.5°F16.4°C 71% 12.1 mph E19.5 kmh E 14.5 mph23.3 kmh 29.86 in1011.2 mb 0.00 in0.0 mm 0.00 in0.0 mm 0.00 in0.0 mm
04:27 AM 71.6°F22.0°C 60.5°F15.8°C 68% 9.8 mph E15.8 kmh E 12.1 mph19.5 kmh 29.85 in1010.8 mb 0.00 in0.0 mm 0.00 in0.0 mm 0.00 in0.0 mm
04:22 AM 71.6°F22.0°C 60.5°F15.8°C 68% 10.7 mph E17.2 kmh E 13.0 mph20.9 kmh 29.85 in1010.8 mb 0.00 in0.0 mm 0.00 in0.0 mm 0.00 in0.0 mm
04:17 AM 71.8°F22.1°C 61.1°F16.2°C 69% 12.1 mph E19.5 kmh E 13.7 mph22.0 kmh 29.84 in1010.5 mb 0.00 in0.0 mm 0.00 in0.0 mm 0.00 in0.0 mm
04:12 AM 71.8°F22.1°C 60.6°F15.9°C 68% 13.0 mph E20.9 kmh E 15.2 mph24.5 kmh 29.85 in1010.8 mb 0.00 in0.0 mm 0.00 in0.0 mm 0.00 in0.0 mm
04:07 AM 72.1°F22.3°C 61.0°F16.1°C 68% 11.4 mph E18.3 kmh E 13.7 mph22.0 kmh 29.84 in1010.5 mb 0.00 in0.0 mm 0.00 in0.0 mm 0.00 in0.0 mm
04:02 AM 72.0°F22.2°C 60.4°F15.8°C 67% 9.2 mph E14.8 kmh E 11.4 mph18.3 kmh 29.84 in1010.5 mb 0.00 in0.0 mm 0.00 in0.0 mm 0.00 in0.0 mm
03:57 AM 71.8°F22.1°C 60.6°F15.9°C 68% 13.7 mph E22.0 kmh E 15.9 mph25.6 kmh 29.84 in1010.5 mb 0.00 in0.0 mm 0.00 in0.0 mm 0.00 in0.0 mm
03:52 AM 71.6°F22.0°C 61.7°F16.5°C 71% 14.5 mph E23.3 kmh E 16.8 mph27.0 kmh 29.84 in1010.5 mb 0.00 in0.0 mm 0.00 in0.0 mm 0.00 in0.0 mm
03:47 AM 71.8°F22.1°C 60.6°F15.9°C 68% 12.1 mph E19.5 kmh E 15.9 mph25.6 kmh 29.84 in1010.5 mb 0.00 in0.0 mm 0.00 in0.0 mm 0.00 in0.0 mm
03:42 AM 71.8°F22.1°C 60.6°F15.9°C 68% 15.2 mph E24.5 kmh E 18.3 mph29.5 kmh 29.84 in1010.5 mb 0.00 in0.0 mm 0.00 in0.0 mm 0.00 in0.0 mm
03:37 AM 71.8°F22.1°C 60.6°F15.9°C 68% 13.0 mph E20.9 kmh E 19.0 mph30.6 kmh 29.84 in1010.5 mb 0.00 in0.0 mm 0.00 in0.0 mm 0.00 in0.0 mm
03:32 AM 72.0°F22.2°C 60.8°F16.0°C 68% 17.5 mph E28.2 kmh E 19.7 mph31.7 kmh 29.83 in1010.2 mb 0.00 in0.0 mm 0.00 in0.0 mm 0.00 in0.0 mm
03:27 AM 72.1°F22.3°C 61.4°F16.3°C 69% 15.2 mph E24.5 kmh E 16.8 mph27.0 kmh 29.84 in1010.5 mb 0.00 in0.0 mm 0.00 in0.0 mm 0.00 in0.0 mm
03:22 AM 72.1°F22.3°C 61.4°F16.3°C 69% 13.0 mph E20.9 kmh E 18.3 mph29.5 kmh 29.84 in1010.5 mb 0.00 in0.0 mm 0.00 in0.0 mm 0.00 in0.0 mm
03:17 AM 72.3°F22.4°C 61.2°F16.2°C 68% 14.5 mph E23.3 kmh E 19.7 mph31.7 kmh 29.83 in1010.2 mb 0.00 in0.0 mm 0.00 in0.0 mm 0.00 in0.0 mm
03:12 AM 72.3°F22.4°C 62.0°F16.7°C 70% 13.0 mph E20.9 kmh E 15.2 mph24.5 kmh 29.84 in1010.5 mb 0.00 in0.0 mm 0.00 in0.0 mm 0.00 in0.0 mm
03:07 AM 72.3°F22.4°C 60.7°F15.9°C 67% 15.2 mph E24.5 kmh E 17.5 mph28.2 kmh 29.83 in1010.2 mb 0.00 in0.0 mm 0.00 in0.0 mm 0.00 in0.0 mm
03:02 AM 72.3°F22.4°C 60.7°F15.9°C 67% 15.9 mph E25.6 kmh E 20.6 mph33.2 kmh 29.83 in1010.2 mb 0.00 in0.0 mm 0.00 in0.0 mm 0.00 in0.0 mm
02:57 AM 72.3°F22.4°C 60.7°F15.9°C 67% 16.8 mph E27.0 kmh E 19.0 mph30.6 kmh 29.83 in1010.2 mb 0.00 in0.0 mm 0.00 in0.0 mm 0.00 in0.0 mm
02:52 AM 72.5°F22.5°C 60.1°F15.6°C 65% 13.7 mph E22.0 kmh E 17.5 mph28.2 kmh 29.83 in1010.2 mb 0.00 in0.0 mm 0.00 in0.0 mm 0.00 in0.0 mm
02:47 AM 72.5°F22.5°C 60.5°F15.8°C 66% 13.7 mph E22.0 kmh E 17.5 mph28.2 kmh 29.84 in1010.5 mb 0.00 in0.0 mm 0.00 in0.0 mm 0.00 in0.0 mm
02:42 AM 72.7°F22.6°C 60.7°F15.9°C 66% 13.7 mph ESE22.0 kmh ESE 16.8 mph27.0 kmh 29.84 in1010.5 mb 0.00 in0.0 mm 0.00 in0.0 mm 0.00 in0.0 mm
02:37 AM 72.7°F22.6°C 61.5°F16.4°C 68% 13.0 mph E20.9 kmh E 15.9 mph25.6 kmh 29.84 in1010.5 mb 0.00 in0.0 mm 0.00 in0.0 mm 0.00 in0.0 mm
02:32 AM 72.7°F22.6°C 61.1°F16.2°C 67% 12.1 mph E19.5 kmh E 17.5 mph28.2 kmh 29.84 in1010.5 mb 0.00 in0.0 mm 0.00 in0.0 mm 0.00 in0.0 mm
02:27 AM 72.7°F22.6°C 61.1°F16.2°C 67% 17.5 mph E28.2 kmh E 21.3 mph34.3 kmh 29.84 in1010.5 mb 0.00 in0.0 mm 0.00 in0.0 mm 0.00 in0.0 mm
02:22 AM 72.7°F22.6°C 61.1°F16.2°C 67% 15.2 mph E24.5 kmh E 19.0 mph30.6 kmh 29.84 in1010.5 mb 0.00 in0.0 mm 0.00 in0.0 mm 0.00 in0.0 mm
02:17 AM 72.5°F22.5°C 61.3°F16.3°C 68% 15.2 mph E24.5 kmh E 17.5 mph28.2 kmh 29.84 in1010.5 mb 0.00 in0.0 mm 0.00 in0.0 mm 0.00 in0.0 mm
02:11 AM 72.7°F22.6°C 61.9°F16.6°C 69% 13.0 mph E20.9 kmh E 14.5 mph23.3 kmh 29.84 in1010.5 mb 0.00 in0.0 mm 0.00 in0.0 mm 0.00 in0.0 mm
02:06 AM 72.5°F22.5°C 61.3°F16.3°C 68% 11.4 mph E18.3 kmh E 15.2 mph24.5 kmh 29.84 in1010.5 mb 0.00 in0.0 mm 0.00 in0.0 mm 0.00 in0.0 mm
02:01 AM 72.5°F22.5°C 62.2°F16.8°C 70% 13.7 mph ESE22.0 kmh ESE 15.9 mph25.6 kmh 29.84 in1010.5 mb 0.00 in0.0 mm 0.00 in0.0 mm 0.00 in0.0 mm
01:56 AM 72.5°F22.5°C 62.2°F16.8°C 70% 15.9 mph E25.6 kmh E 22.8 mph36.7 kmh 29.84 in1010.5 mb 0.00 in0.0 mm 0.00 in0.0 mm 0.00 in0.0 mm
01:51 AM 72.5°F22.5°C 62.2°F16.8°C 70% 16.8 mph E27.0 kmh E 19.7 mph31.7 kmh 29.84 in1010.5 mb 0.00 in0.0 mm 0.00 in0.0 mm 0.00 in0.0 mm
01:46 AM 72.7°F22.6°C 62.3°F16.8°C 70% 17.5 mph E28.2 kmh E 21.3 mph34.3 kmh 29.85 in1010.8 mb 0.00 in0.0 mm 0.00 in0.0 mm 0.00 in0.0 mm
01:41 AM 72.7°F22.6°C 61.9°F16.6°C 69% 15.2 mph E24.5 kmh E 20.6 mph33.2 kmh 29.85 in1010.8 mb 0.00 in0.0 mm 0.00 in0.0 mm 0.00 in0.0 mm
01:36 AM 72.7°F22.6°C 61.5°F16.4°C 68% 15.2 mph ESE24.5 kmh ESE 19.0 mph30.6 kmh 29.85 in1010.8 mb 0.00 in0.0 mm 0.00 in0.0 mm 0.00 in0.0 mm
01:31 AM 72.5°F22.5°C 61.7°F16.5°C 69% 13.7 mph E22.0 kmh E 15.2 mph24.5 kmh 29.85 in1010.8 mb 0.00 in0.0 mm 0.00 in0.0 mm 0.00 in0.0 mm
01:26 AM 72.7°F22.6°C 61.9°F16.6°C 69% 15.9 mph E25.6 kmh E 19.7 mph31.7 kmh 29.85 in1010.8 mb 0.00 in0.0 mm 0.00 in0.0 mm 0.00 in0.0 mm
01:21 AM 72.7°F22.6°C 62.3°F16.8°C 70% 17.5 mph E28.2 kmh E 23.5 mph37.8 kmh 29.85 in1010.8 mb 0.00 in0.0 mm 0.00 in0.0 mm 0.00 in0.0 mm
01:16 AM 72.9°F22.7°C 61.7°F16.5°C 68% 21.3 mph E34.3 kmh E 23.5 mph37.8 kmh 29.84 in1010.5 mb 0.00 in0.0 mm 0.00 in0.0 mm 0.00 in0.0 mm
01:11 AM 73.0°F22.8°C 61.8°F16.6°C 68% 15.2 mph E24.5 kmh E 17.5 mph28.2 kmh 29.85 in1010.8 mb 0.00 in0.0 mm 0.00 in0.0 mm 0.00 in0.0 mm
01:06 AM 73.2°F22.9°C 62.4°F16.9°C 69% 16.8 mph E27.0 kmh E 20.6 mph33.2 kmh 29.84 in1010.5 mb 0.00 in0.0 mm 0.00 in0.0 mm 0.00 in0.0 mm
01:01 AM 73.2°F22.9°C 62.4°F16.9°C 69% 16.8 mph E27.0 kmh E 20.6 mph33.2 kmh 29.85 in1010.8 mb 0.00 in0.0 mm 0.00 in0.0 mm 0.00 in0.0 mm
12:56 AM 73.2°F22.9°C 62.8°F17.1°C 70% 15.9 mph E25.6 kmh E 18.3 mph29.5 kmh 29.84 in1010.5 mb 0.00 in0.0 mm 0.00 in0.0 mm 0.00 in0.0 mm
12:51 AM 73.2°F22.9°C 62.0°F16.7°C 68% 14.5 mph E23.3 kmh E 17.5 mph28.2 kmh 29.85 in1010.8 mb 0.00 in0.0 mm 0.00 in0.0 mm 0.00 in0.0 mm
12:46 AM 73.2°F22.9°C 62.0°F16.7°C 68% 14.5 mph E23.3 kmh E 16.8 mph27.0 kmh 29.85 in1010.8 mb 0.00 in0.0 mm 0.00 in0.0 mm 0.00 in0.0 mm
12:41 AM 73.2°F22.9°C 62.4°F16.9°C 69% 13.0 mph ESE20.9 kmh ESE 17.5 mph28.2 kmh 29.84 in1010.5 mb 0.00 in0.0 mm 0.00 in0.0 mm 0.00 in0.0 mm
12:36 AM 73.2°F22.9°C 62.4°F16.9°C 69% 13.0 mph E20.9 kmh E 15.2 mph24.5 kmh 29.84 in1010.5 mb 0.00 in0.0 mm 0.00 in0.0 mm 0.00 in0.0 mm
12:31 AM 73.2°F22.9°C 62.0°F16.7°C 68% 17.5 mph E28.2 kmh E 19.7 mph31.7 kmh 29.84 in1010.5 mb 0.00 in0.0 mm 0.00 in0.0 mm 0.00 in0.0 mm
12:26 AM 73.4°F23.0°C 62.6°F17.0°C 69% 15.2 mph E24.5 kmh E 19.7 mph31.7 kmh 29.85 in1010.8 mb 0.00 in0.0 mm 0.00 in0.0 mm 0.00 in0.0 mm
12:21 AM 73.4°F23.0°C 62.6°F17.0°C 69% 15.2 mph E24.5 kmh E 18.3 mph29.5 kmh 29.85 in1010.8 mb 0.00 in0.0 mm 0.00 in0.0 mm 0.00 in0.0 mm
12:16 AM 73.6°F23.1°C 61.9°F16.6°C 67% 13.7 mph E22.0 kmh E 15.9 mph25.6 kmh 29.85 in1010.8 mb 0.00 in0.0 mm 0.00 in0.0 mm 0.00 in0.0 mm
12:11 AM 73.6°F23.1°C 61.1°F16.2°C 65% 17.5 mph E28.2 kmh E 19.7 mph31.7 kmh 29.85 in1010.8 mb 0.00 in0.0 mm 0.00 in0.0 mm 0.00 in0.0 mm
12:06 AM 73.6°F23.1°C 61.5°F16.4°C 66% 16.8 mph E27.0 kmh E 20.6 mph33.2 kmh 29.85 in1010.8 mb 0.00 in0.0 mm 0.00 in0.0 mm 0.00 in0.0 mm
12:01 AM 73.6°F23.1°C 61.5°F16.4°C 66% 19.7 mph E31.7 kmh E 25.1 mph40.4 kmh 29.85 in1010.8 mb 0.00 in0.0 mm 0.00 in0.0 mm 0.00 in0.0 mm